Time;durP1;ratioP1;P1;durP2;ratioP2;P2;SDS_P1;SDS_P2;PMS_P1;PMS_P2;Temp;Humidity;BMP_temperature;BMP_pressure;BME280_temperature;BME280_humidity;BME280_pressure;Samples;Min_cycle;Max_cycle;Signal;HPM_P1;HPM_P2
2021/06/02 00:01:40;;;;;;;9.70;9.30;;;12.90;17.80;;;;;;5014190;28;20473;-71
2021/06/02 00:04:07;;;;;;;10.40;9.90;;;12.90;17.80;;;;;;5012897;28;20249;-71
2021/06/02 00:06:35;;;;;;;10.10;9.57;;;12.80;18.20;;;;;;5014447;28;20469;-71
2021/06/02 00:09:02;;;;;;;9.17;8.70;;;12.80;18.30;;;;;;5013726;28;20914;-71
2021/06/02 00:11:27;;;;;;;9.17;8.77;;;12.80;18.50;;;;;;5014079;28;20429;-71
2021/06/02 00:13:55;;;;;;;10.00;9.17;;;12.70;17.90;;;;;;5025400;28;20510;-71
2021/06/02 00:16:20;;;;;;;9.47;9.07;;;12.70;17.90;;;;;;5034179;28;20591;-71
2021/06/02 00:18:46;;;;;;;9.93;9.43;;;12.70;18.10;;;;;;5033393;28;20477;-71
2021/06/02 00:21:11;;;;;;;8.13;7.77;;;12.60;18.30;;;;;;5033485;28;20207;-71
2021/06/02 00:23:37;;;;;;;9.10;8.70;;;12.60;18.70;;;;;;5033585;28;20260;-72
2021/06/02 00:26:06;;;;;;;9.00;8.50;;;12.50;18.70;;;;;;5033825;28;20650;-71
2021/06/02 00:28:32;;;;;;;8.40;7.90;;;12.40;19.10;;;;;;5018669;28;20282;-71
2021/06/02 00:30:58;;;;;;;8.03;7.63;;;12.40;19.10;;;;;;5013622;28;20946;-71
2021/06/02 00:33:25;;;;;;;8.20;7.80;;;12.40;19.90;;;;;;5012495;28;20566;-71
2021/06/02 00:35:51;;;;;;;7.47;7.13;;;12.40;19.50;;;;;;5019757;28;20428;-72
2021/06/02 00:38:17;;;;;;;7.50;7.10;;;12.40;19.70;;;;;;5031975;28;20424;-71
2021/06/02 00:40:48;;;;;;;8.40;7.80;;;12.30;19.90;;;;;;5033023;28;20456;-71
2021/06/02 00:43:15;;;;;;;7.63;7.23;;;12.30;19.90;;;;;;5033255;28;20421;-71
2021/06/02 00:45:43;;;;;;;7.67;7.20;;;12.20;19.90;;;;;;5032706;28;20430;-72
2021/06/02 00:48:16;;;;;;;7.33;6.83;;;12.20;20.40;;;;;;5037828;28;20929;-70
2021/06/02 00:50:49;;;;;;;6.17;5.70;;;12.10;20.30;;;;;;5037012;28;20460;-70
2021/06/02 00:53:16;;;;;;;7.13;6.63;;;12.10;20.70;;;;;;5036911;28;20414;-70
2021/06/02 00:55:42;;;;;;;6.40;6.10;;;12.10;20.90;;;;;;5036696;28;20442;-70
2021/06/02 00:58:11;;;;;;;6.00;5.60;;;12.00;21.00;;;;;;5036440;28;20966;-70
2021/06/02 01:00:37;;;;;;;5.83;5.53;;;12.00;21.60;;;;;;5016437;28;20477;-70
2021/06/02 01:03:06;;;;;;;5.70;5.20;;;11.90;22.10;;;;;;5016544;28;20417;-70
2021/06/02 01:05:31;;;;;;;5.37;5.07;;;12.00;22.90;;;;;;5014881;28;20185;-70
2021/06/02 01:08:02;;;;;;;6.70;6.20;;;11.90;23.10;;;;;;5016224;28;20490;-70
2021/06/02 01:10:29;;;;;;;6.43;5.93;;;11.90;23.10;;;;;;5015724;28;20299;-70
2021/06/02 01:12:59;;;;;;;5.57;5.17;;;11.80;23.40;;;;;;5021743;28;20423;-70
2021/06/02 01:15:26;;;;;;;7.47;5.40;;;11.70;23.80;;;;;;5036947;28;20414;-70
2021/06/02 01:17:51;;;;;;;4.20;4.00;;;11.70;23.80;;;;;;5036207;28;20421;-70
2021/06/02 01:20:18;;;;;;;5.57;5.03;;;11.70;23.90;;;;;;5035401;28;20472;-70
2021/06/02 01:22:44;;;;;;;7.03;5.70;;;11.60;24.00;;;;;;5034164;28;20659;-70
2021/06/02 01:25:14;;;;;;;5.53;5.23;;;11.50;23.60;;;;;;5035679;28;20407;-70
2021/06/02 01:27:41;;;;;;;5.90;4.87;;;11.50;24.00;;;;;;5029534;28;20467;-70
2021/06/02 01:30:11;;;;;;;4.87;4.57;;;11.40;23.60;;;;;;5015561;28;20473;-70
2021/06/02 01:32:54;;;;;;;5.00;4.70;;;11.40;24.50;;;;;;5015491;28;20499;-70
2021/06/02 01:35:46;;;;;;;5.33;5.00;;;11.40;24.60;;;;;;5014703;28;20422;-70
2021/06/02 01:38:19;;;;;;;5.20;4.90;;;11.30;24.70;;;;;;5015030;28;20769;-70
2021/06/02 01:41:19;;;;;;;4.83;4.53;;;11.30;24.90;;;;;;5021714;28;20987;-69
2021/06/02 01:43:45;;;;;;;4.93;4.43;;;;;;;;;;5034272;28;20762;-69
2021/06/02 01:46:28;;;;;;;4.33;3.93;;;11.20;24.00;;;;;;5033786;28;20468;-70
2021/06/02 01:49:27;;;;;;;5.17;4.77;;;11.20;24.90;;;;;;5033472;28;20532;-69
2021/06/02 01:52:13;;;;;;;4.20;3.80;;;11.10;24.50;;;;;;5038181;28;20466;-70
2021/06/02 01:55:13;;;;;;;4.43;4.10;;;11.00;24.50;;;;;;5031708;28;20573;-70
2021/06/02 01:58:16;;;;;;;5.03;4.73;;;10.90;24.10;;;;;;5013796;28;20435;-70
2021/06/02 02:01:01;;;;;;;5.20;4.07;;;10.90;24.00;;;;;;5012289;28;20443;-70
2021/06/02 02:03:48;;;;;;;4.63;4.30;;;10.80;24.00;;;;;;5013659;28;20415;-70
2021/06/02 02:06:39;;;;;;;4.50;4.10;;;10.80;24.40;;;;;;5013656;28;20785;-70
2021/06/02 02:09:27;;;;;;;4.00;3.80;;;10.70;24.40;;;;;;5026366;28;20907;-69
2021/06/02 02:12:04;;;;;;;4.37;3.63;;;10.70;24.80;;;;;;5020435;28;20495;-70
2021/06/02 02:15:04;;;;;;;4.67;4.30;;;10.60;24.70;;;;;;5013511;28;20410;-70
2021/06/02 02:18:04;;;;;;;3.73;3.53;;;10.60;24.60;;;;;;5013938;28;20912;-70
2021/06/02 02:20:47;;;;;;;4.87;4.47;;;10.60;24.50;;;;;;5012823;28;20449;-69
2021/06/02 02:23:22;;;;;;;5.17;3.60;;;10.50;25.10;;;;;;5026352;28;20433;-70
2021/06/02 02:25:59;;;;;;;4.50;4.13;;;;;;;;;;5013446;28;20430;-70
2021/06/02 02:29:03;;;;;;;4.13;3.67;;;10.40;24.80;;;;;;5012429;28;20493;-70
2021/06/02 02:31:44;;;;;;;7.07;4.23;;;10.40;25.90;;;;;;5013711;28;20966;-70
2021/06/02 02:34:44;;;;;;;4.60;4.20;;;10.40;25.60;;;;;;5013422;28;20465;-69
2021/06/02 02:37:31;;;;;;;4.03;3.73;;;10.30;25.60;;;;;;5018564;28;20787;-70
2021/06/02 02:40:25;;;;;;;3.90;3.60;;;10.20;25.70;;;;;;5032531;28;20480;-70
2021/06/02 02:43:12;;;;;;;4.63;4.23;;;10.20;25.80;;;;;;5030210;28;20430;-69
2021/06/02 02:45:46;;;;;;;4.00;3.70;;;10.20;25.60;;;;;;5033281;28;20426;-69
2021/06/02 02:48:50;;;;;;;8.13;4.80;;;10.20;25.60;;;;;;5033241;28;20513;-70
2021/06/02 02:51:57;;;;;;;3.83;3.53;;;10.20;25.60;;;;;;5027933;28;20465;-69
2021/06/02 02:54:38;;;;;;;3.90;3.60;;;10.10;25.90;;;;;;5009144;28;20510;-72
2021/06/02 02:57:13;;;;;;;4.47;4.17;;;10.10;26.20;;;;;;5024468;28;20463;-69
2021/06/02 02:59:50;;;;;;;4.17;3.87;;;10.10;26.10;;;;;;5010753;28;20504;-70
2021/06/02 03:02:37;;;;;;;4.37;4.07;;;10.10;26.10;;;;;;5010656;28;20418;-69
2021/06/02 03:05:06;;;;;;;4.33;3.93;;;10.10;25.70;;;;;;5011054;28;20458;-69
2021/06/02 03:07:35;;;;;;;3.90;3.60;;;10.10;25.80;;;;;;5027797;28;20476;-68
2021/06/02 03:10:12;;;;;;;3.80;3.50;;;10.10;25.80;;;;;;5030523;28;20440;-69
2021/06/02 03:12:49;;;;;;;4.03;3.63;;;10.00;25.90;;;;;;5030937;28;20512;-69
2021/06/02 03:15:39;;;;;;;4.00;3.57;;;10.00;26.10;;;;;;5030834;28;20402;-69
2021/06/02 03:18:05;;;;;;;3.87;3.53;;;10.00;26.20;;;;;;5031220;28;20904;-69
2021/06/02 03:20:43;;;;;;;4.00;3.20;;;9.90;26.90;;;;;;5019818;28;20457;-69
2021/06/02 03:23:37;;;;;;;4.83;4.43;;;9.90;27.40;;;;;;5011031;28;20199;-70
2021/06/02 03:26:07;;;;;;;5.40;4.33;;;9.90;27.40;;;;;;5010943;28;20473;-68
2021/06/02 03:28:57;;;;;;;3.67;3.47;;;9.80;27.30;;;;;;5011329;28;20737;-69
2021/06/02 03:31:25;;;;;;;3.73;3.43;;;9.80;27.30;;;;;;5010974;28;20437;-69
2021/06/02 03:34:29;;;;;;;3.73;3.43;;;9.80;27.40;;;;;;5013334;28;20840;-70
2021/06/02 03:37:13;;;;;;;3.97;3.57;;;9.80;28.10;;;;;;5030576;28;20421;-70
2021/06/02 03:39:49;;;;;;;4.70;4.03;;;9.80;28.10;;;;;;5030238;28;20462;-69
2021/06/02 03:42:52;;;;;;;4.70;3.67;;;9.80;28.20;;;;;;5030702;28;20998;-70
2021/06/02 03:45:48;;;;;;;4.23;3.80;;;9.80;28.50;;;;;;5030602;28;20414;-72
2021/06/02 03:48:22;;;;;;;6.17;5.57;;;9.80;29.10;;;;;;5030173;28;21014;-71
2021/06/02 03:51:26;;;;;;;5.23;4.73;;;9.80;29.70;;;;;;4990690;28;20450;-71
2021/06/02 03:54:11;;;;;;;4.97;4.47;;;9.70;30.20;;;;;;4991241;28;20463;-71
2021/06/02 03:57:10;;;;;;;4.57;4.27;;;9.70;30.30;;;;;;4991604;28;20408;-71
2021/06/02 04:00:14;;;;;;;4.00;3.70;;;9.80;30.30;;;;;;4990928;28;20411;-71
2021/06/02 04:02:50;;;;;;;6.40;4.63;;;9.80;30.50;;;;;;4995142;28;20442;-70
2021/06/02 04:05:24;;;;;;;7.70;5.47;;;9.90;30.50;;;;;;5030719;28;20977;-71
2021/06/02 04:08:06;;;;;;;3.60;3.30;;;9.90;30.40;;;;;;5030379;28;20469;-72
2021/06/02 04:10:55;;;;;;;3.90;3.60;;;10.00;29.30;;;;;;5030552;28;20437;-71
2021/06/02 04:13:59;;;;;;;4.80;4.30;;;10.00;29.20;;;;;;5032460;28;20525;-71
2021/06/02 04:16:39;;;;;;;5.00;4.53;;;10.10;28.90;;;;;;5034242;28;20907;-71
2021/06/02 04:19:14;;;;;;;5.00;4.60;;;10.10;28.90;;;;;;5018325;28;20433;-71
2021/06/02 04:21:43;;;;;;;4.07;3.77;;;10.10;28.70;;;;;;5014285;28;20521;-71
2021/06/02 04:24:12;;;;;;;4.80;4.03;;;10.10;28.60;;;;;;5013981;28;20423;-71
2021/06/02 04:26:38;;;;;;;4.70;4.00;;;10.10;28.50;;;;;;5013847;28;20456;-70
2021/06/02 04:29:09;;;;;;;3.37;3.17;;;10.20;28.10;;;;;;5013595;28;20409;-70
2021/06/02 04:31:36;;;;;;;4.80;4.30;;;10.20;27.90;;;;;;5016366;28;20502;-71
2021/06/02 04:34:02;;;;;;;6.60;4.20;;;10.30;27.80;;;;;;5033466;28;20412;-70
2021/06/02 04:36:29;;;;;;;3.87;3.57;;;10.40;27.40;;;;;;5033774;28;20421;-71
2021/06/02 04:38:57;;;;;;;4.53;4.13;;;10.40;27.10;;;;;;5033390;28;20413;-71
2021/06/02 04:41:24;;;;;;;3.70;3.33;;;10.40;27.00;;;;;;5032351;28;20973;-71
2021/06/02 04:43:53;;;;;;;6.10;3.83;;;10.50;27.70;;;;;;5033707;28;20465;-71
2021/06/02 04:46:20;;;;;;;5.80;4.60;;;10.50;26.60;;;;;;5026018;28;20446;-71
2021/06/02 04:48:50;;;;;;;4.53;4.10;;;10.60;26.50;;;;;;5013343;28;20403;-71
2021/06/02 04:51:37;;;;;;;3.50;3.20;;;10.70;27.20;;;;;;5013307;28;20450;-71
2021/06/02 04:54:14;;;;;;;4.40;4.00;;;10.90;27.40;;;;;;5013284;28;20422;-70
2021/06/02 04:57:25;;;;;;;6.23;5.77;;;15.10;21.00;;;;;;5013290;28;20418;-71
2021/06/02 05:00:16;;;;;;;8.70;8.10;;;15.10;20.50;;;;;;5025882;28;20461;-72
2021/06/02 05:03:13;;;;;;;8.90;8.50;;;;;;;;;;5017652;28;20873;-71
2021/06/02 05:05:42;;;;;;;11.00;10.43;;;;;;;;;;5013289;28;20490;-69
2021/06/02 05:08:11;;;;;;;11.70;11.10;;;;;;;;;;5011742;28;21014;-72
2021/06/02 05:10:48;;;;;;;12.40;11.87;;;23.30;30.80;;;;;;5012899;28;20419;-71
2021/06/02 05:13:23;;;;;;;13.07;12.57;;;;;;;;;;5019473;28;20430;-71
2021/06/02 05:16:08;;;;;;;13.53;12.93;;;;;;;;;;5018987;28;20467;-71
2021/06/02 05:18:57;;;;;;;14.03;13.33;;;;;;;;;;4994113;28;20504;-71
2021/06/02 05:22:07;;;;;;;15.00;14.40;;;;;;;;;;4996902;28;20426;-70
2021/06/02 05:25:12;;;;;;;15.63;15.03;;;26.20;35.80;;;;;;5011893;28;20500;-71
2021/06/02 05:27:50;;;;;;;15.80;15.00;;;26.20;9.00;;;;;;5032091;28;20492;-71
2021/06/02 05:30:49;;;;;;;16.90;16.20;;;26.40;8.30;;;;;;5032286;28;20472;-71
2021/06/02 05:33:51;;;;;;;16.33;15.70;;;26.60;11.80;;;;;;5031197;28;20414;-71
2021/06/02 05:36:37;;;;;;;17.33;16.63;;;26.80;31.50;;;;;;5013031;28;20457;-71
2021/06/02 05:39:12;;;;;;;17.50;16.80;;;27.10;2.80;;;;;;5012416;28;20482;-71
2021/06/02 05:42:12;;;;;;;17.80;17.10;;;27.30;1.70;;;;;;5030261;28;20891;-71
2021/06/02 05:44:56;;;;;;;19.07;18.17;;;;;;;;;;5032308;28;20394;-71
2021/06/02 05:47:40;;;;;;;18.60;17.80;;;27.80;1.00;;;;;;5032125;28;20542;-72
2021/06/02 05:50:12;;;;;;;19.77;18.03;;;28.20;1.00;;;;;;5032117;28;20445;-71
2021/06/02 05:53:15;;;;;;;19.20;18.40;;;28.60;1.00;;;;;;5028911;28;20430;-70
2021/06/02 05:56:19;;;;;;;19.77;18.97;;;29.00;1.00;;;;;;5008610;28;20789;-71
2021/06/02 05:58:53;;;;;;;19.60;18.80;;;29.30;1.00;;;;;;5012412;28;21010;-70
2021/06/02 06:01:40;;;;;;;20.10;19.20;;;28.80;1.00;;;;;;5012203;28;20434;-71
2021/06/02 06:04:46;;;;;;;20.10;19.20;;;28.30;1.00;;;;;;5012270;28;20417;-71
2021/06/02 06:07:52;;;;;;;20.10;19.30;;;28.50;1.00;;;;;;5012479;28;20478;-71
2021/06/02 06:10:51;;;;;;;20.50;19.70;;;28.40;1.00;;;;;;5011842;28;20471;-70
2021/06/02 06:13:32;;;;;;;20.37;19.53;;;28.70;1.00;;;;;;5012292;28;20418;-71
2021/06/02 06:16:24;;;;;;;20.63;19.83;;;29.00;1.00;;;;;;5012448;28;20439;-71
2021/06/02 06:18:59;;;;;;;19.43;18.73;;;29.20;1.00;;;;;;5012039;28;20881;-71
2021/06/02 06:21:27;;;;;;;20.80;19.80;;;29.10;1.00;;;;;;5012038;28;20441;-71
2021/06/02 06:24:09;;;;;;;20.70;19.80;;;29.10;1.00;;;;;;5012576;28;20415;-71
2021/06/02 06:26:59;;;;;;;21.97;20.73;;;29.30;1.00;;;;;;5011595;28;20457;-71
2021/06/02 06:29:45;;;;;;;21.33;20.33;;;29.40;1.00;;;;;;5011777;28;20420;-71
2021/06/02 06:32:10;;;;;;;21.30;20.40;;;29.80;1.00;;;;;;5012072;28;20403;-71
2021/06/02 06:34:39;;;;;;;20.97;19.97;;;29.80;1.00;;;;;;5011857;28;20422;-71
2021/06/02 06:37:05;;;;;;;20.97;19.97;;;29.90;1.00;;;;;;5011758;28;20172;-72
2021/06/02 06:39:53;;;;;;;20.80;20.00;;;29.70;21.20;;;;;;5011531;28;20406;-73
2021/06/02 06:42:25;;;;;;;20.80;20.00;;;29.80;22.00;;;;;;5011908;28;20183;-72
2021/06/02 06:45:03;;;;;;;20.70;19.80;;;30.10;20.90;;;;;;5011660;28;20419;-73
2021/06/02 06:47:32;;;;;;;20.60;19.60;;;30.60;20.50;;;;;;5011513;28;20876;-73
2021/06/02 06:49:59;;;;;;;20.00;19.20;;;30.80;19.80;;;;;;5008804;28;20553;-72
2021/06/02 06:52:27;;;;;;;19.30;18.60;;;31.20;19.70;;;;;;5008336;28;20517;-72
2021/06/02 06:54:56;;;;;;;20.57;19.63;;;31.60;21.00;;;;;;5007794;28;20443;-73
2021/06/02 06:57:22;;;;;;;20.77;19.87;;;31.80;22.10;;;;;;5006307;28;20426;-72
2021/06/02 06:59:48;;;;;;;21.20;20.00;;;31.60;21.40;;;;;;5007375;28;20431;-73
2021/06/02 07:02:15;;;;;;;20.93;19.80;;;31.80;21.80;;;;;;5007055;28;20547;-73
2021/06/02 07:04:42;;;;;;;20.80;19.73;;;31.90;20.90;;;;;;5007814;28;20442;-72
2021/06/02 07:07:09;;;;;;;21.07;20.27;;;31.90;22.40;;;;;;5010448;28;20463;-74
2021/06/02 07:09:35;;;;;;;20.83;20.03;;;32.00;23.30;;;;;;5010728;28;20518;-73
2021/06/02 07:12:01;;;;;;;20.80;20.00;;;32.10;23.70;;;;;;5011175;28;20505;-72
2021/06/02 07:14:30;;;;;;;21.30;20.30;;;32.10;22.90;;;;;;5011250;28;20419;-72
2021/06/02 07:17:04;;;;;;;20.53;19.63;;;32.10;22.60;;;;;;5011257;28;20418;-73
2021/06/02 07:19:32;;;;;;;21.17;20.23;;;32.20;22.20;;;;;;5011288;28;21039;-74
2021/06/02 07:21:59;;;;;;;22.20;20.63;;;32.10;23.00;;;;;;5011204;28;20477;-73
2021/06/02 07:24:25;;;;;;;21.23;20.33;;;32.30;23.20;;;;;;5009953;28;20418;-74
2021/06/02 07:26:51;;;;;;;21.83;20.83;;;32.70;24.10;;;;;;5011468;28;20454;-72
2021/06/02 07:29:17;;;;;;;22.90;21.83;;;32.30;19.30;;;;;;5007565;28;20929;-73
2021/06/02 07:31:43;;;;;;;21.80;20.93;;;32.10;19.20;;;;;;4995880;28;20438;-73
2021/06/02 07:34:08;;;;;;;21.83;21.03;;;31.90;19.40;;;;;;5008616;28;20184;-73
2021/06/02 07:36:35;;;;;;;21.63;20.73;;;31.90;19.10;;;;;;5010947;28;20206;-73
2021/06/02 07:39:03;;;;;;;22.20;21.20;;;31.70;19.00;;;;;;5010773;28;20183;-74
2021/06/02 07:41:29;;;;;;;21.87;20.97;;;31.70;19.70;;;;;;5010878;28;20844;-74
2021/06/02 07:43:54;;;;;;;21.30;20.50;;;31.80;20.60;;;;;;5011103;28;20411;-73
2021/06/02 07:46:20;;;;;;;22.30;21.30;;;32.10;20.50;;;;;;5010548;28;20507;-73
2021/06/02 07:48:46;;;;;;;22.27;21.27;;;32.40;20.00;;;;;;5013600;28;20312;-75
2021/06/02 07:51:11;;;;;;;22.43;21.53;;;32.70;19.90;;;;;;5014232;28;20208;-73
2021/06/02 07:53:37;;;;;;;23.00;21.80;;;33.30;19.90;;;;;;5014698;28;20703;-73
2021/06/02 07:56:03;;;;;;;22.20;21.30;;;33.50;20.10;;;;;;5012239;28;20195;-73
2021/06/02 07:58:29;;;;;;;21.60;20.60;;;33.20;18.70;;;;;;5010052;28;20184;-74
2021/06/02 08:00:54;;;;;;;22.73;21.73;;;33.70;3.70;;;;;;5012468;28;20689;-73
2021/06/02 08:03:20;;;;;;;23.30;22.00;;;32.60;10.80;;;;;;5014443;28;20570;-70
2021/06/02 08:05:45;;;;;;;21.67;20.77;;;32.30;15.90;;;;;;5014445;28;20172;-73
2021/06/02 08:08:11;;;;;;;21.30;20.40;;;32.60;19.50;;;;;;5014394;28;20204;-75
2021/06/02 08:10:37;;;;;;;21.93;21.03;;;32.60;18.60;;;;;;5014306;28;20196;-73
2021/06/02 08:13:03;;;;;;;22.43;20.80;;;32.60;19.50;;;;;;5014329;28;20180;-74
2021/06/02 08:15:29;;;;;;;22.20;21.30;;;32.60;19.20;;;;;;5014052;28;20971;-73
2021/06/02 08:17:55;;;;;;;22.70;21.60;;;32.90;19.60;;;;;;5012586;28;20211;-75
2021/06/02 08:20:21;;;;;;;22.00;21.20;;;33.50;17.30;;;;;;5013940;28;21014;-73
2021/06/02 08:22:47;;;;;;;22.27;21.37;;;33.90;18.10;;;;;;5014290;28;20650;-74
2021/06/02 08:25:15;;;;;;;21.67;20.87;;;33.80;16.80;;;;;;5013984;28;20422;-72
2021/06/02 08:27:41;;;;;;;23.10;22.00;;;33.90;17.50;;;;;;5012182;28;20199;-73
2021/06/02 08:30:08;;;;;;;22.30;21.20;;;33.40;17.20;;;;;;5010721;28;20856;-73
2021/06/02 08:32:35;;;;;;;22.80;21.70;;;33.30;16.90;;;;;;5013762;28;20800;-73
2021/06/02 08:35:00;;;;;;;22.33;21.40;;;33.40;18.70;;;;;;5013861;28;20419;-73
2021/06/02 08:37:26;;;;;;;22.10;21.17;;;33.20;7.50;;;;;;5026370;28;20449;-73
2021/06/02 08:39:52;;;;;;;21.77;20.87;;;32.90;4.00;;;;;;5017068;28;20301;-74
2021/06/02 08:42:18;;;;;;;23.03;21.40;;;33.20;17.10;;;;;;5025242;28;20211;-72
2021/06/02 08:44:43;;;;;;;21.80;20.90;;;33.50;16.30;;;;;;5013843;28;20592;-73
2021/06/02 08:47:09;;;;;;;21.63;20.73;;;33.70;17.10;;;;;;5013897;28;20458;-72
2021/06/02 08:49:35;;;;;;;22.27;21.37;;;33.70;15.80;;;;;;5013707;28;20521;-74
2021/06/02 08:52:01;;;;;;;23.33;22.27;;;33.50;15.50;;;;;;5025531;28;20631;-74
2021/06/02 08:54:28;;;;;;;23.47;22.37;;;32.80;1.00;;;;;;5033464;28;20585;-71
2021/06/02 08:56:53;;;;;;;22.40;21.40;;;31.50;1.00;;;;;;5033183;28;20422;-74
2021/06/02 08:59:19;;;;;;;22.70;21.60;;;;;;;;;;5031772;28;20464;-74
2021/06/02 09:01:46;;;;;;;22.20;21.30;;;29.40;1.00;;;;;;5033111;28;20677;-74
2021/06/02 09:04:12;;;;;;;22.67;21.70;;;28.40;1.00;;;;;;5031595;28;20423;-74
2021/06/02 09:06:43;;;;;;;23.00;21.90;;;27.60;2.20;;;;;;5013233;28;20517;-72
2021/06/02 09:09:12;;;;;;;22.33;21.33;;;27.40;1.00;;;;;;5014045;28;20502;-72
2021/06/02 09:11:42;;;;;;;23.20;22.10;;;26.80;1.00;;;;;;5010677;28;20470;-72
2021/06/02 09:14:29;;;;;;;22.43;21.50;;;26.30;1.00;;;;;;5009558;28;20466;-72
2021/06/02 09:17:03;;;;;;;21.70;20.80;;;26.20;2.90;;;;;;5015383;28;20435;-72
2021/06/02 09:19:44;;;;;;;22.20;21.30;;;26.30;2.30;;;;;;5013906;28;20945;-73
2021/06/02 09:22:12;;;;;;;22.20;21.07;;;26.10;1.00;;;;;;5024653;28;20429;-73
2021/06/02 09:24:59;;;;;;;22.63;21.63;;;25.90;1.00;;;;;;5032550;28;20470;-73
2021/06/02 09:27:46;;;;;;;22.60;21.70;;;25.70;1.00;;;;;;5024313;28;20470;-73
2021/06/02 09:30:14;;;;;;;23.20;22.20;;;25.60;2.00;;;;;;5023955;28;20443;-74
2021/06/02 09:32:57;;;;;;;21.53;20.63;;;25.60;1.00;;;;;;5038059;28;20430;-72
2021/06/02 09:35:41;;;;;;;21.43;20.53;;;25.70;1.00;;;;;;5045162;28;20473;-73
2021/06/02 09:38:25;;;;;;;23.07;21.40;;;25.70;1.40;;;;;;5047175;28;20744;-73
2021/06/02 09:40:56;;;;;;;21.90;20.80;;;26.00;1.00;;;;;;5043325;28;20975;-72
2021/06/02 09:43:32;;;;;;;21.80;20.90;;;26.10;1.00;;;;;;5027001;28;20489;-73
2021/06/02 09:46:09;;;;;;;21.40;20.50;;;26.10;1.00;;;;;;5025101;28;20482;-73
2021/06/02 09:48:57;;;;;;;22.50;21.60;;;26.10;1.00;;;;;;5027896;28;20477;-73
2021/06/02 09:51:39;;;;;;;22.53;21.43;;;26.10;1.20;;;;;;5033433;28;20469;-73
2021/06/02 09:54:09;;;;;;;21.37;20.53;;;26.30;1.00;;;;;;5043750;28;20437;-73
2021/06/02 09:56:42;;;;;;;23.33;21.67;;;26.30;1.30;;;;;;5047064;28;20513;-73
2021/06/02 09:59:12;;;;;;;22.07;21.17;;;26.30;2.30;;;;;;5045255;28;20414;-73
2021/06/02 10:01:58;;;;;;;22.70;21.70;;;26.40;1.00;;;;;;5043352;28;20442;-73
2021/06/02 10:04:42;;;;;;;22.57;21.57;;;26.50;1.00;;;;;;5026864;28;20426;-75
2021/06/02 10:07:21;;;;;;;23.40;21.80;;;26.40;1.30;;;;;;5024569;28;20473;-73
2021/06/02 10:09:47;;;;;;;22.07;21.17;;;26.60;1.00;;;;;;5024562;28;20410;-73
2021/06/02 10:12:13;;;;;;;22.20;21.30;;;26.50;1.00;;;;;;5024179;28;20415;-72
2021/06/02 10:14:56;;;;;;;21.73;20.80;;;26.60;1.00;;;;;;5046164;28;20430;-72
2021/06/02 10:17:33;;;;;;;21.77;20.87;;;26.60;1.00;;;;;;5046982;28;20414;-72
2021/06/02 10:20:06;;;;;;;21.60;20.70;;;26.80;1.00;;;;;;5048682;28;20471;-72
2021/06/02 10:22:31;;;;;;;22.03;20.70;;;26.80;1.10;;;;;;5045087;28;20472;-72
2021/06/02 10:25:01;;;;;;;21.47;20.67;;;26.80;1.00;;;;;;5027159;28;20442;-73
2021/06/02 10:27:27;;;;;;;21.10;20.20;;;26.80;1.00;;;;;;5031169;28;20211;-74
2021/06/02 10:29:53;;;;;;;22.17;21.20;;;26.90;1.00;;;;;;5028729;28;20423;-74
2021/06/02 10:32:20;;;;;;;21.87;20.97;;;26.90;1.30;;;;;;5028498;28;20415;-73
2021/06/02 10:34:47;;;;;;;22.30;21.40;;;26.90;1.00;;;;;;5028708;28;20848;-75
2021/06/02 10:37:15;;;;;;;22.40;21.20;;;26.80;1.00;;;;;;5029139;28;20417;-74
2021/06/02 10:39:44;;;;;;;21.83;20.73;;;26.90;1.00;;;;;;5047957;28;20417;-74
2021/06/02 10:42:19;;;;;;;21.93;21.03;;;26.80;1.00;;;;;;5048830;28;20406;-74
2021/06/02 10:44:49;;;;;;;22.40;21.50;;;26.80;1.00;;;;;;5045851;28;20417;-73
2021/06/02 10:47:21;;;;;;;22.27;21.30;;;26.70;1.00;;;;;;5045546;28;20568;-73
2021/06/02 10:49:48;;;;;;;21.50;20.70;;;26.60;1.00;;;;;;5028993;28;20450;-73
2021/06/02 10:52:35;;;;;;;22.87;21.87;;;26.60;1.00;;;;;;5028669;28;20557;-73
2021/06/02 10:55:37;;;;;;;21.80;20.90;;;26.80;1.00;;;;;;5026405;28;20414;-73
2021/06/02 10:58:16;;;;;;;21.77;20.87;;;26.80;1.00;;;;;;5034625;28;20421;-73
2021/06/02 11:00:42;;;;;;;22.30;21.40;;;26.70;1.00;;;;;;5045764;28;20464;-74
2021/06/02 11:03:17;;;;;;;22.30;21.30;;;26.70;1.00;;;;;;5045624;28;20409;-74
2021/06/02 11:05:43;;;;;;;21.90;20.90;;;26.90;1.00;;;;;;5043261;28;20440;-73
2021/06/02 11:08:08;;;;;;;21.90;20.90;;;27.00;1.00;;;;;;5028883;28;20474;-73
2021/06/02 11:10:34;;;;;;;21.30;20.50;;;26.80;1.00;;;;;;5033302;28;20203;-73
2021/06/02 11:13:01;;;;;;;22.47;21.47;;;26.50;1.00;;;;;;5032973;28;20175;-71
2021/06/02 11:15:45;;;;;;;21.63;20.70;;;26.30;1.00;;;;;;5033143;28;20180;-71
2021/06/02 11:18:17;;;;;;;22.67;21.67;;;26.40;1.00;;;;;;5025744;28;20477;-72
2021/06/02 11:20:47;;;;;;;21.50;20.70;;;26.50;1.00;;;;;;5016003;28;20439;-73
2021/06/02 11:23:15;;;;;;;21.90;20.80;;;26.50;1.00;;;;;;5019702;28;20454;-72
2021/06/02 11:25:42;;;;;;;21.80;20.90;;;26.50;1.00;;;;;;5019320;28;20786;-72
2021/06/02 11:28:28;;;;;;;21.87;20.97;;;26.70;1.00;;;;;;5025911;28;20476;-72
2021/06/02 11:31:22;;;;;;;21.80;21.00;;;26.60;1.00;;;;;;5040937;28;20449;-71
2021/06/02 11:33:48;;;;;;;22.27;21.37;;;26.50;1.00;;;;;;5041796;28;20433;-71
2021/06/02 11:36:13;;;;;;;21.10;20.30;;;26.30;1.00;;;;;;5042466;28;20914;-73
2021/06/02 11:38:41;;;;;;;21.50;20.63;;;26.30;1.00;;;;;;5045409;28;20512;-74
2021/06/02 11:41:07;;;;;;;21.37;20.47;;;26.10;1.00;;;;;;5044301;28;20286;-71
2021/06/02 11:43:33;;;;;;;21.93;20.93;;;26.10;1.00;;;;;;5035165;28;20418;-72
2021/06/02 11:46:00;;;;;;;21.30;20.50;;;26.30;1.00;;;;;;5037780;28;20414;-71
2021/06/02 11:48:27;;;;;;;21.80;20.90;;;26.40;1.00;;;;;;5029637;28;20506;-71
2021/06/02 11:50:54;;;;;;;21.43;20.53;;;26.40;1.00;;;;;;5036066;28;20462;-72
2021/06/02 11:53:20;;;;;;;21.40;20.43;;;26.50;1.00;;;;;;5036902;28;20433;-72
2021/06/02 11:55:46;;;;;;;21.73;20.83;;;26.40;1.00;;;;;;5026371;28;20472;-72
2021/06/02 11:58:12;;;;;;;21.27;20.27;;;26.40;1.00;;;;;;5027562;28;20524;-73
2021/06/02 12:00:38;;;;;;;21.37;20.30;;;26.50;1.00;;;;;;5037703;28;20210;-72
2021/06/02 12:03:09;;;;;;;22.07;21.10;;;26.30;1.00;;;;;;5038685;28;20186;-72
2021/06/02 12:05:42;;;;;;;22.10;21.00;;;26.30;1.00;;;;;;5037165;28;20175;-73
2021/06/02 12:08:10;;;;;;;21.80;20.60;;;26.40;1.00;;;;;;5036999;28;20568;-71
2021/06/02 12:10:46;;;;;;;21.13;20.23;;;26.50;1.00;;;;;;5034862;28;20425;-71
2021/06/02 12:13:15;;;;;;;21.50;20.50;;;26.70;1.00;;;;;;5037608;28;20402;-73
2021/06/02 12:16:03;;;;;;;21.17;20.37;;;26.70;1.00;;;;;;5036623;28;20895;-72
2021/06/02 12:18:41;;;;;;;21.90;20.80;;;26.60;1.00;;;;;;5035613;28;20806;-72
2021/06/02 12:21:16;;;;;;;21.33;20.53;;;26.50;1.00;;;;;;5035468;28;20551;-73
2021/06/02 12:23:55;;;;;;;21.50;20.60;;;26.40;1.00;;;;;;5035459;28;20421;-72
2021/06/02 12:26:33;;;;;;;22.40;21.30;;;26.50;1.00;;;;;;5036374;28;20421;-72
2021/06/02 12:29:10;;;;;;;21.83;20.93;;;26.60;1.00;;;;;;5035052;28;20421;-72
2021/06/02 12:31:48;;;;;;;21.30;20.50;;;26.70;1.00;;;;;;5036682;28;20449;-72
2021/06/02 12:34:32;;;;;;;21.60;20.70;;;26.90;1.00;;;;;;5035350;28;20895;-72
2021/06/02 12:37:00;;;;;;;22.10;21.20;;;27.00;1.00;;;;;;5035149;28;20421;-73
2021/06/02 12:39:29;;;;;;;21.77;20.80;;;27.10;1.00;;;;;;5035754;28;20422;-73
2021/06/02 12:41:56;;;;;;;21.50;20.70;;;27.00;1.00;;;;;;5036347;28;20437;-72
2021/06/02 12:44:27;;;;;;;21.73;20.83;;;26.90;1.00;;;;;;5035791;28;20501;-72
2021/06/02 12:47:05;;;;;;;21.97;20.77;;;27.00;1.00;;;;;;5036289;28;20509;-71
2021/06/02 12:49:31;;;;;;;22.60;21.60;;;27.00;1.00;;;;;;5035636;28;20437;-72
2021/06/02 12:51:58;;;;;;;21.90;21.00;;;27.00;1.00;;;;;;5035479;28;20871;-72
2021/06/02 12:54:28;;;;;;;21.50;20.57;;;27.00;1.00;;;;;;5035953;28;20559;-72
2021/06/02 12:56:54;;;;;;;22.07;21.17;;;27.00;1.00;;;;;;5036638;28;20489;-72
2021/06/02 12:59:20;;;;;;;22.47;21.40;;;27.00;1.00;;;;;;5036202;28;20433;-72
2021/06/02 13:01:46;;;;;;;22.60;21.17;;;27.10;1.00;;;;;;5036128;28;20810;-72
2021/06/02 13:04:16;;;;;;;21.90;21.00;;;27.30;1.00;;;;;;5034550;28;20444;-72
2021/06/02 13:06:51;;;;;;;22.63;21.30;;;27.30;1.00;;;;;;5032854;28;20415;-73
2021/06/02 13:09:23;;;;;;;22.20;21.20;;;27.10;1.00;;;;;;5035998;28;20417;-72
2021/06/02 13:11:49;;;;;;;20.40;19.60;;;27.00;1.00;;;;;;5042069;28;20434;-72
2021/06/02 13:14:15;;;;;;;22.67;21.03;;;26.80;1.00;;;;;;5039444;28;20467;-72
2021/06/02 13:17:01;;;;;;;21.93;21.03;;;26.70;1.00;;;;;;5034665;28;20409;-72
2021/06/02 13:19:43;;;;;;;22.10;21.00;;;26.70;1.00;;;;;;5035587;28;20187;-72
2021/06/02 13:22:22;;;;;;;21.80;21.00;;;26.60;1.00;;;;;;5041664;28;20414;-73
2021/06/02 13:24:48;;;;;;;22.00;21.10;;;26.70;1.00;;;;;;5044203;28;20457;-73